الصفحة الرئيسية
METAR-TAF:

METAR-TAF

مطار :

سان خوان, بويرتو ريكو, الولايات المتحدة

مطار لويس مارين مونيوز

دائرة عرض: 18-27N, خط طول: 066-00W, ارتفاع: 3 متر

مراقبة الطقس الحالي

تاريخ ووقت الإصدار 57 دقيقة قبل الساعة 20:56UTC
ريح 13 عقدة من الشرق تتزايد حتى 20 عقدة
درجة الحرارة 26°درجة مئوية
الرطوبة 74%
ضغط 1019 hPa
الرؤية: 16.1 كم
غيوم قليلة على ارتفاع 2800 قدم
غيوم متفرقة على ارتفاع 3400 قدم
غيوم متفرقة على ارتفاع 9500 قدم

METAR: TJSJ 182056Z 09013G20KT 10SM FEW028 SCT034 SCT095 26/21 A3009 RMK AO2 SLP188 T02610206 55006 $

زمن: 17:53 (21:53 UTC)

توقعات

تاريخ ووقت الإصدار 2ساعات و 5 دقيقة قبل الساعة 19:48UTC
التوقعات صالحة من18 الساعة 20 UTC إلى 19 الساعة 18 UTC
ريح 12 عقدة من الشرق
الرؤية: 10 كم
غيوم متفرقة على ارتفاع 2500 قدم
غيوم متفرقة على ارتفاع 5000 قدم
زخات في الجوار
من 19 الساعة 1300 UTC
ريح 15 عقدة من الشرق تتزايد حتى 25 عقدة
الرؤية: 10 كم
غيوم قليلة على ارتفاع 2500 قدم
غيوم متفرقة على ارتفاع 6000 قدم

TAF: TJSJ 181948Z 1820/1918 09012KT P6SM VCSH SCT025 SCT050 FM191300 08015G25KT P6SM FEW025 SCT060

أرصاد الطقس والتوقعات من أكثر من 4000 مطار (تقارير الطقس للمطار METAR والتنبؤ بالطقس بالمطارTAF).

المحطات المتاحة هي النقط الصفراء والحمراء على الخريطة.

حرك المؤشر فوق النقطة لمعرفة اسم المحطة.

ثم انقر لمعرفة أرصاد وتوقعات الطقس.

لتغيير الخارطة: اضغط على الأزرار الخضراء مع رمز الصليب الأسود للتكبير. على الزر الأخضر مع شرطة للتصغير، أو على الأسهم الخضراء للخرائط المجاورة.


METAR-TAF: